sensor_id;sensor_type;location;lat;lon;timestamp;P1;durP1;ratioP1;P2;durP2;ratioP2
56746;SDS011;42623;49.978;9.966;2023-07-02T00:00:01;4.10;;;2.20;;
56746;SDS011;42623;49.978;9.966;2023-07-02T00:00:11;4.05;;;2.08;;
56746;SDS011;42623;49.978;9.966;2023-07-02T00:00:21;4.30;;;2.10;;
56746;SDS011;42623;49.978;9.966;2023-07-02T00:00:32;4.28;;;2.00;;
56746;SDS011;42623;49.978;9.966;2023-07-02T00:00:42;4.33;;;2.07;;
56746;SDS011;42623;49.978;9.966;2023-07-02T00:00:52;4.20;;;1.90;;
56746;SDS011;42623;49.978;9.966;2023-07-02T00:01:02;4.13;;;2.00;;
56746;SDS011;42623;49.978;9.966;2023-07-02T00:01:13;4.20;;;2.03;;
56746;SDS011;42623;49.978;9.966;2023-07-02T00:01:23;4.22;;;2.03;;
56746;SDS011;42623;49.978;9.966;2023-07-02T00:01:33;4.77;;;2.20;;
56746;SDS011;42623;49.978;9.966;2023-07-02T00:01:43;5.07;;;2.30;;
56746;SDS011;42623;49.978;9.966;2023-07-02T00:01:53;5.07;;;2.37;;
56746;SDS011;42623;49.978;9.966;2023-07-02T00:02:03;4.80;;;2.33;;
56746;SDS011;42623;49.978;9.966;2023-07-02T00:02:14;4.55;;;2.25;;
56746;SDS011;42623;49.978;9.966;2023-07-02T00:02:25;3.92;;;2.03;;
56746;SDS011;42623;49.978;9.966;2023-07-02T00:02:36;4.23;;;1.97;;
56746;SDS011;42623;49.978;9.966;2023-07-02T00:02:46;5.07;;;2.10;;
56746;SDS011;42623;49.978;9.966;2023-07-02T00:02:56;5.93;;;2.20;;
56746;SDS011;42623;49.978;9.966;2023-07-02T00:03:07;6.07;;;2.47;;
56746;SDS011;42623;49.978;9.966;2023-07-02T00:03:17;5.47;;;2.40;;
56746;SDS011;42623;49.978;9.966;2023-07-02T00:03:31;5.70;;;2.70;;
56746;SDS011;42623;49.978;9.966;2023-07-02T00:03:41;5.20;;;2.70;;
56746;SDS011;42623;49.978;9.966;2023-07-02T00:03:51;5.00;;;2.60;;
56746;SDS011;42623;49.978;9.966;2023-07-02T00:04:02;5.50;;;2.40;;
56746;SDS011;42623;49.978;9.966;2023-07-02T00:04:13;4.97;;;2.10;;
56746;SDS011;42623;49.978;9.966;2023-07-02T00:04:26;5.95;;;2.25;;
56746;SDS011;42623;49.978;9.966;2023-07-02T00:04:36;5.10;;;2.10;;
56746;SDS011;42623;49.978;9.966;2023-07-02T00:04:46;5.30;;;2.10;;
56746;SDS011;42623;49.978;9.966;2023-07-02T00:04:56;5.03;;;2.13;;
56746;SDS011;42623;49.978;9.966;2023-07-02T00:05:06;4.83;;;2.10;;
56746;SDS011;42623;49.978;9.966;2023-07-02T00:05:17;5.00;;;2.37;;
56746;SDS011;42623;49.978;9.966;2023-07-02T00:05:27;4.45;;;2.42;;
56746;SDS011;42623;49.978;9.966;2023-07-02T00:05:37;5.50;;;2.93;;
56746;SDS011;42623;49.978;9.966;2023-07-02T00:05:48;5.00;;;2.70;;
56746;SDS011;42623;49.978;9.966;2023-07-02T00:06:00;4.47;;;2.33;;
56746;SDS011;42623;49.978;9.966;2023-07-02T00:06:11;3.97;;;2.03;;
56746;SDS011;42623;49.978;9.966;2023-07-02T00:06:21;4.70;;;2.33;;
56746;SDS011;42623;49.978;9.966;2023-07-02T00:06:31;5.07;;;2.63;;
56746;SDS011;42623;49.978;9.966;2023-07-02T00:06:42;5.07;;;2.72;;
56746;SDS011;42623;49.978;9.966;2023-07-02T00:06:53;4.80;;;2.47;;
56746;SDS011;42623;49.978;9.966;2023-07-02T00:07:03;4.80;;;2.60;;
56746;SDS011;42623;49.978;9.966;2023-07-02T00:07:14;4.72;;;2.40;;
56746;SDS011;42623;49.978;9.966;2023-07-02T00:07:24;4.70;;;2.37;;
56746;SDS011;42623;49.978;9.966;2023-07-02T00:07:35;4.75;;;2.38;;
56746;SDS011;42623;49.978;9.966;2023-07-02T00:07:46;4.13;;;2.17;;
56746;SDS011;42623;49.978;9.966;2023-07-02T00:07:56;4.13;;;2.03;;
56746;SDS011;42623;49.978;9.966;2023-07-02T00:08:06;4.30;;;2.07;;
56746;SDS011;42623;49.978;9.966;2023-07-02T00:08:16;4.73;;;2.33;;
56746;SDS011;42623;49.978;9.966;2023-07-02T00:08:26;4.30;;;2.27;;
56746;SDS011;42623;49.978;9.966;2023-07-02T00:08:36;4.50;;;2.30;;
56746;SDS011;42623;49.978;9.966;2023-07-02T00:08:46;4.97;;;2.37;;
56746;SDS011;42623;49.978;9.966;2023-07-02T00:08:57;5.60;;;2.57;;
56746;SDS011;42623;49.978;9.966;2023-07-02T00:09:07;5.33;;;2.23;;
56746;SDS011;42623;49.978;9.966;2023-07-02T00:09:17;4.77;;;2.10;;
56746;SDS011;42623;49.978;9.966;2023-07-02T00:09:27;4.97;;;2.20;;
56746;SDS011;42623;49.978;9.966;2023-07-02T00:09:37;4.68;;;2.28;;
56746;SDS011;42623;49.978;9.966;2023-07-02T00:09:47;6.77;;;2.27;;
56746;SDS011;42623;49.978;9.966;2023-07-02T00:09:58;6.53;;;2.23;;
56746;SDS011;42623;49.978;9.966;2023-07-02T00:10:08;6.60;;;2.20;;
56746;SDS011;42623;49.978;9.966;2023-07-02T00:10:20;4.70;;;2.28;;
56746;SDS011;42623;49.978;9.966;2023-07-02T00:10:30;4.33;;;2.27;;
56746;SDS011;42623;49.978;9.966;2023-07-02T00:10:40;4.70;;;2.13;;
56746;SDS011;42623;49.978;9.966;2023-07-02T00:10:51;4.57;;;2.10;;
56746;SDS011;42623;49.978;9.966;2023-07-02T00:11:01;4.40;;;2.00;;
56746;SDS011;42623;49.978;9.966;2023-07-02T00:11:11;3.97;;;2.00;;
56746;SDS011;42623;49.978;9.966;2023-07-02T00:11:22;4.05;;;2.00;;
56746;SDS011;42623;49.978;9.966;2023-07-02T00:11:32;4.07;;;2.00;;
56746;SDS011;42623;49.978;9.966;2023-07-02T00:11:43;4.40;;;2.43;;
56746;SDS011;42623;49.978;9.966;2023-07-02T00:11:54;4.82;;;2.78;;
56746;SDS011;42623;49.978;9.966;2023-07-02T00:12:04;4.82;;;2.78;;
56746;SDS011;42623;49.978;9.966;2023-07-02T00:12:14;4.57;;;2.30;;
56746;SDS011;42623;49.978;9.966;2023-07-02T00:12:24;4.50;;;2.20;;
56746;SDS011;42623;49.978;9.966;2023-07-02T00:12:34;5.13;;;2.33;;
56746;SDS011;42623;49.978;9.966;2023-07-02T00:12:45;4.78;;;2.30;;
56746;SDS011;42623;49.978;9.966;2023-07-02T00:12:55;4.63;;;2.13;;
56746;SDS011;42623;49.978;9.966;2023-07-02T00:13:05;4.90;;;2.10;;
56746;SDS011;42623;49.978;9.966;2023-07-02T00:13:15;5.57;;;2.33;;
56746;SDS011;42623;49.978;9.966;2023-07-02T00:13:25;5.80;;;2.40;;
56746;SDS011;42623;49.978;9.966;2023-07-02T00:13:35;5.07;;;2.27;;
56746;SDS011;42623;49.978;9.966;2023-07-02T00:13:45;4.57;;;2.00;;
56746;SDS011;42623;49.978;9.966;2023-07-02T00:13:56;4.67;;;2.20;;
56746;SDS011;42623;49.978;9.966;2023-07-02T00:14:06;5.03;;;2.40;;
56746;SDS011;42623;49.978;9.966;2023-07-02T00:14:17;4.85;;;2.45;;
56746;SDS011;42623;49.978;9.966;2023-07-02T00:14:27;4.93;;;2.50;;
56746;SDS011;42623;49.978;9.966;2023-07-02T00:14:37;4.90;;;2.50;;
56746;SDS011;42623;49.978;9.966;2023-07-02T00:14:47;5.00;;;2.43;;
56746;SDS011;42623;49.978;9.966;2023-07-02T00:14:57;5.72;;;2.22;;
56746;SDS011;42623;49.978;9.966;2023-07-02T00:15:08;5.83;;;2.30;;
56746;SDS011;42623;49.978;9.966;2023-07-02T00:15:18;5.73;;;2.23;;
56746;SDS011;42623;49.978;9.966;2023-07-02T00:15:28;4.50;;;2.07;;
56746;SDS011;42623;49.978;9.966;2023-07-02T00:15:38;4.18;;;2.10;;
56746;SDS011;42623;49.978;9.966;2023-07-02T00:15:48;4.10;;;2.00;;
56746;SDS011;42623;49.978;9.966;2023-07-02T00:15:58;4.13;;;2.03;;
56746;SDS011;42623;49.978;9.966;2023-07-02T00:16:09;4.00;;;1.90;;
56746;SDS011;42623;49.978;9.966;2023-07-02T00:16:19;4.67;;;2.20;;
56746;SDS011;42623;49.978;9.966;2023-07-02T00:16:29;5.17;;;2.47;;
56746;SDS011;42623;49.978;9.966;2023-07-02T00:16:42;5.25;;;2.45;;
56746;SDS011;42623;49.978;9.966;2023-07-02T00:16:52;4.50;;;2.03;;
56746;SDS011;42623;49.978;9.966;2023-07-02T00:17:03;5.20;;;2.20;;
56746;SDS011;42623;49.978;9.966;2023-07-02T00:17:13;5.40;;;2.40;;
56746;SDS011;42623;49.978;9.966;2023-07-02T00:17:24;5.27;;;2.53;;
56746;SDS011;42623;49.978;9.966;2023-07-02T00:17:34;4.67;;;2.40;;
56746;SDS011;42623;49.978;9.966;2023-07-02T00:17:44;4.32;;;2.10;;
56746;SDS011;42623;49.978;9.966;2023-07-02T00:17:54;4.27;;;2.07;;
56746;SDS011;42623;49.978;9.966;2023-07-02T00:18:07;4.22;;;2.00;;
56746;SDS011;42623;49.978;9.966;2023-07-02T00:18:17;4.40;;;2.30;;
56746;SDS011;42623;49.978;9.966;2023-07-02T00:18:27;5.00;;;2.70;;
56746;SDS011;42623;49.978;9.966;2023-07-02T00:18:43;4.78;;;2.50;;
56746;SDS011;42623;49.978;9.966;2023-07-02T00:18:53;4.57;;;2.43;;
56746;SDS011;42623;49.978;9.966;2023-07-02T00:19:04;4.00;;;2.10;;
56746;SDS011;42623;49.978;9.966;2023-07-02T00:19:14;4.30;;;2.17;;
56746;SDS011;42623;49.978;9.966;2023-07-02T00:19:25;4.13;;;2.10;;
56746;SDS011;42623;49.978;9.966;2023-07-02T00:19:35;4.47;;;2.37;;
56746;SDS011;42623;49.978;9.966;2023-07-02T00:19:45;4.40;;;2.30;;
56746;SDS011;42623;49.978;9.966;2023-07-02T00:19:56;4.47;;;2.30;;
56746;SDS011;42623;49.978;9.966;2023-07-02T00:20:07;4.70;;;2.40;;
56746;SDS011;42623;49.978;9.966;2023-07-02T00:20:24;5.80;;;2.55;;
56746;SDS011;42623;49.978;9.966;2023-07-02T00:20:34;5.30;;;2.43;;
56746;SDS011;42623;49.978;9.966;2023-07-02T00:20:47;4.45;;;2.30;;
56746;SDS011;42623;49.978;9.966;2023-07-02T00:20:57;3.70;;;2.07;;
56746;SDS011;42623;49.978;9.966;2023-07-02T00:21:08;3.73;;;2.03;;
56746;SDS011;42623;49.978;9.966;2023-07-02T00:21:23;3.85;;;2.10;;
56746;SDS011;42623;49.978;9.966;2023-07-02T00:21:38;4.15;;;2.38;;
56746;SDS011;42623;49.978;9.966;2023-07-02T00:21:48;3.90;;;2.20;;
56746;SDS011;42623;49.978;9.966;2023-07-02T00:21:59;3.77;;;1.90;;
56746;SDS011;42623;49.978;9.966;2023-07-02T00:22:09;4.27;;;2.03;;
56746;SDS011;42623;49.978;9.966;2023-07-02T00:22:19;4.05;;;1.95;;
56746;SDS011;42623;49.978;9.966;2023-07-02T00:22:30;4.30;;;2.00;;
56746;SDS011;42623;49.978;9.966;2023-07-02T00:22:40;3.87;;;1.80;;
56746;SDS011;42623;49.978;9.966;2023-07-02T00:22:55;4.13;;;1.98;;
56746;SDS011;42623;49.978;9.966;2023-07-02T00:23:06;4.33;;;2.17;;
56746;SDS011;42623;49.978;9.966;2023-07-02T00:23:18;4.38;;;2.20;;
56746;SDS011;42623;49.978;9.966;2023-07-02T00:23:30;4.47;;;2.30;;
56746;SDS011;42623;49.978;9.966;2023-07-02T00:23:40;4.63;;;2.23;;
56746;SDS011;42623;49.978;9.966;2023-07-02T00:23:50;5.23;;;2.60;;
56746;SDS011;42623;49.978;9.966;2023-07-02T00:24:00;5.00;;;2.50;;
56746;SDS011;42623;49.978;9.966;2023-07-02T00:24:10;5.27;;;2.33;;
56746;SDS011;42623;49.978;9.966;2023-07-02T00:24:20;5.03;;;1.97;;
56746;SDS011;42623;49.978;9.966;2023-07-02T00:24:30;5.87;;;2.23;;
56746;SDS011;42623;49.978;9.966;2023-07-02T00:24:41;5.53;;;2.35;;
56746;SDS011;42623;49.978;9.966;2023-07-02T00:24:51;5.10;;;2.20;;
56746;SDS011;42623;49.978;9.966;2023-07-02T00:25:01;4.13;;;2.03;;
56746;SDS011;42623;49.978;9.966;2023-07-02T00:25:12;4.70;;;2.10;;
56746;SDS011;42623;49.978;9.966;2023-07-02T00:25:22;4.45;;;2.20;;
56746;SDS011;42623;49.978;9.966;2023-07-02T00:25:32;4.43;;;2.15;;
56746;SDS011;42623;49.978;9.966;2023-07-02T00:25:43;3.87;;;2.10;;
56746;SDS011;42623;49.978;9.966;2023-07-02T00:25:53;3.93;;;2.20;;
56746;SDS011;42623;49.978;9.966;2023-07-02T00:26:03;4.73;;;2.20;;
56746;SDS011;42623;49.978;9.966;2023-07-02T00:26:13;4.87;;;2.10;;
56746;SDS011;42623;49.978;9.966;2023-07-02T00:26:24;5.07;;;2.17;;
56746;SDS011;42623;49.978;9.966;2023-07-02T00:26:35;4.28;;;2.13;;
56746;SDS011;42623;49.978;9.966;2023-07-02T00:26:45;4.33;;;2.20;;
56746;SDS011;42623;49.978;9.966;2023-07-02T00:26:55;4.55;;;2.15;;
56746;SDS011;42623;49.978;9.966;2023-07-02T00:27:06;4.57;;;2.13;;
56746;SDS011;42623;49.978;9.966;2023-07-02T00:27:16;4.40;;;2.17;;
56746;SDS011;42623;49.978;9.966;2023-07-02T00:27:26;4.37;;;2.10;;
56746;SDS011;42623;49.978;9.966;2023-07-02T00:27:36;4.00;;;2.10;;
56746;SDS011;42623;49.978;9.966;2023-07-02T00:27:48;4.13;;;1.98;;
56746;SDS011;42623;49.978;9.966;2023-07-02T00:27:58;4.17;;;2.13;;
56746;SDS011;42623;49.978;9.966;2023-07-02T00:28:08;4.53;;;2.27;;
56746;SDS011;42623;49.978;9.966;2023-07-02T00:28:18;4.90;;;2.40;;
56746;SDS011;42623;49.978;9.966;2023-07-02T00:28:28;5.17;;;2.43;;
56746;SDS011;42623;49.978;9.966;2023-07-02T00:28:38;4.73;;;2.30;;
56746;SDS011;42623;49.978;9.966;2023-07-02T00:28:48;4.00;;;2.17;;
56746;SDS011;42623;49.978;9.966;2023-07-02T00:28:59;3.63;;;2.03;;
56746;SDS011;42623;49.978;9.966;2023-07-02T00:29:09;3.57;;;2.00;;
56746;SDS011;42623;49.978;9.966;2023-07-02T00:29:19;4.22;;;2.30;;
56746;SDS011;42623;49.978;9.966;2023-07-02T00:29:29;4.57;;;2.43;;
56746;SDS011;42623;49.978;9.966;2023-07-02T00:29:39;4.77;;;2.50;;
56746;SDS011;42623;49.978;9.966;2023-07-02T00:29:49;4.50;;;2.40;;
56746;SDS011;42623;49.978;9.966;2023-07-02T00:30:00;4.57;;;2.40;;
56746;SDS011;42623;49.978;9.966;2023-07-02T00:30:10;5.13;;;2.60;;
56746;SDS011;42623;49.978;9.966;2023-07-02T00:30:20;5.27;;;2.70;;
56746;SDS011;42623;49.978;9.966;2023-07-02T00:30:30;4.87;;;2.67;;
56746;SDS011;42623;49.978;9.966;2023-07-02T00:30:40;5.00;;;2.70;;
56746;SDS011;42623;49.978;9.966;2023-07-02T00:30:51;4.63;;;2.38;;
56746;SDS011;42623;49.978;9.966;2023-07-02T00:31:01;4.97;;;2.47;;
56746;SDS011;42623;49.978;9.966;2023-07-02T00:31:12;4.53;;;2.22;;
56746;SDS011;42623;49.978;9.966;2023-07-02T00:31:22;5.23;;;2.47;;
56746;SDS011;42623;49.978;9.966;2023-07-02T00:31:33;5.05;;;2.22;;
56746;SDS011;42623;49.978;9.966;2023-07-02T00:31:43;4.97;;;2.40;;
56746;SDS011;42623;49.978;9.966;2023-07-02T00:31:53;5.17;;;2.70;;
56746;SDS011;42623;49.978;9.966;2023-07-02T00:32:04;5.20;;;2.80;;
56746;SDS011;42623;49.978;9.966;2023-07-02T00:32:14;4.93;;;2.60;;
56746;SDS011;42623;49.978;9.966;2023-07-02T00:32:24;4.33;;;2.17;;
56746;SDS011;42623;49.978;9.966;2023-07-02T00:32:34;4.47;;;2.23;;
56746;SDS011;42623;49.978;9.966;2023-07-02T00:32:44;7.72;;;2.60;;
56746;SDS011;42623;49.978;9.966;2023-07-02T00:32:55;7.37;;;2.40;;
56746;SDS011;42623;49.978;9.966;2023-07-02T00:33:05;7.43;;;2.42;;
56746;SDS011;42623;49.978;9.966;2023-07-02T00:33:16;4.37;;;2.30;;
56746;SDS011;42623;49.978;9.966;2023-07-02T00:33:26;4.87;;;2.50;;
56746;SDS011;42623;49.978;9.966;2023-07-02T00:33:36;5.17;;;2.60;;
56746;SDS011;42623;49.978;9.966;2023-07-02T00:33:46;5.23;;;2.53;;
56746;SDS011;42623;49.978;9.966;2023-07-02T00:33:56;5.07;;;2.47;;
56746;SDS011;42623;49.978;9.966;2023-07-02T00:34:07;4.03;;;2.07;;
56746;SDS011;42623;49.978;9.966;2023-07-02T00:34:17;4.00;;;2.10;;
56746;SDS011;42623;49.978;9.966;2023-07-02T00:34:27;3.92;;;2.10;;
56746;SDS011;42623;49.978;9.966;2023-07-02T00:34:38;4.13;;;2.20;;
56746;SDS011;42623;49.978;9.966;2023-07-02T00:34:48;3.97;;;2.13;;
56746;SDS011;42623;49.978;9.966;2023-07-02T00:34:58;3.83;;;2.08;;
56746;SDS011;42623;49.978;9.966;2023-07-02T00:35:08;3.73;;;2.07;;
56746;SDS011;42623;49.978;9.966;2023-07-02T00:35:19;4.20;;;2.10;;
56746;SDS011;42623;49.978;9.966;2023-07-02T00:35:29;4.68;;;2.35;;
56746;SDS011;42623;49.978;9.966;2023-07-02T00:35:39;5.07;;;2.43;;
56746;SDS011;42623;49.978;9.966;2023-07-02T00:35:49;5.03;;;2.43;;
56746;SDS011;42623;49.978;9.966;2023-07-02T00:35:59;4.53;;;2.20;;
56746;SDS011;42623;49.978;9.966;2023-07-02T00:36:10;4.38;;;2.20;;
56746;SDS011;42623;49.978;9.966;2023-07-02T00:36:57;5.03;;;2.50;;
56746;SDS011;42623;49.978;9.966;2023-07-02T00:37:10;4.20;;;2.10;;
56746;SDS011;42623;49.978;9.966;2023-07-02T00:37:21;4.00;;;1.85;;
56746;SDS011;42623;49.978;9.966;2023-07-02T00:37:32;4.07;;;1.90;;
56746;SDS011;42623;49.978;9.966;2023-07-02T00:37:43;4.13;;;1.90;;
56746;SDS011;42623;49.978;9.966;2023-07-02T00:38:06;3.43;;;1.80;;
56746;SDS011;42623;49.978;9.966;2023-07-02T00:38:17;4.20;;;2.00;;
56746;SDS011;42623;49.978;9.966;2023-07-02T00:38:27;4.37;;;2.13;;
56746;SDS011;42623;49.978;9.966;2023-07-02T00:38:37;4.73;;;2.40;;
56746;SDS011;42623;49.978;9.966;2023-07-02T00:38:48;4.97;;;2.53;;
56746;SDS011;42623;49.978;9.966;2023-07-02T00:38:58;5.37;;;2.50;;
56746;SDS011;42623;49.978;9.966;2023-07-02T00:39:08;4.82;;;2.30;;
56746;SDS011;42623;49.978;9.966;2023-07-02T00:40:10;3.85;;;2.08;;
56746;SDS011;42623;49.978;9.966;2023-07-02T00:40:21;4.95;;;2.40;;
56746;SDS011;42623;49.978;9.966;2023-07-02T00:40:36;5.57;;;2.40;;
56746;SDS011;42623;49.978;9.966;2023-07-02T00:40:51;4.65;;;2.28;;
56746;SDS011;42623;49.978;9.966;2023-07-02T00:41:05;4.32;;;2.38;;
56746;SDS011;42623;49.978;9.966;2023-07-02T00:41:17;4.22;;;2.08;;
56746;SDS011;42623;49.978;9.966;2023-07-02T00:41:27;4.45;;;2.28;;
56746;SDS011;42623;49.978;9.966;2023-07-02T00:41:37;4.03;;;2.20;;
56746;SDS011;42623;49.978;9.966;2023-07-02T00:41:47;4.07;;;2.20;;
56746;SDS011;42623;49.978;9.966;2023-07-02T00:42:01;4.30;;;2.13;;
56746;SDS011;42623;49.978;9.966;2023-07-02T00:42:13;4.55;;;2.20;;
56746;SDS011;42623;49.978;9.966;2023-07-02T00:42:23;4.03;;;2.08;;
56746;SDS011;42623;49.978;9.966;2023-07-02T00:42:33;3.77;;;2.00;;
56746;SDS011;42623;49.978;9.966;2023-07-02T00:42:43;4.03;;;1.92;;
56746;SDS011;42623;49.978;9.966;2023-07-02T00:43:33;4.47;;;2.45;;
56746;SDS011;42623;49.978;9.966;2023-07-02T00:43:43;4.73;;;2.53;;
56746;SDS011;42623;49.978;9.966;2023-07-02T00:43:53;4.80;;;2.38;;
56746;SDS011;42623;49.978;9.966;2023-07-02T00:44:04;5.33;;;2.40;;
56746;SDS011;42623;49.978;9.966;2023-07-02T00:44:14;5.77;;;2.73;;
56746;SDS011;42623;49.978;9.966;2023-07-02T00:44:24;5.20;;;2.57;;
56746;SDS011;42623;49.978;9.966;2023-07-02T00:44:34;4.73;;;2.50;;
56746;SDS011;42623;49.978;9.966;2023-07-02T00:44:50;4.40;;;2.30;;
56746;SDS011;42623;49.978;9.966;2023-07-02T00:45:02;4.05;;;2.30;;
56746;SDS011;42623;49.978;9.966;2023-07-02T00:45:12;3.80;;;2.20;;
56746;SDS011;42623;49.978;9.966;2023-07-02T00:45:23;4.40;;;2.37;;
56746;SDS011;42623;49.978;9.966;2023-07-02T00:45:36;4.55;;;2.33;;
56746;SDS011;42623;49.978;9.966;2023-07-02T00:45:46;4.85;;;2.15;;
56746;SDS011;42623;49.978;9.966;2023-07-02T00:45:56;4.63;;;2.10;;
56746;SDS011;42623;49.978;9.966;2023-07-02T00:46:06;4.53;;;2.20;;
56746;SDS011;42623;49.978;9.966;2023-07-02T00:46:17;3.93;;;2.10;;
56746;SDS011;42623;49.978;9.966;2023-07-02T00:46:29;4.78;;;2.40;;
56746;SDS011;42623;49.978;9.966;2023-07-02T00:46:40;4.68;;;2.30;;
56746;SDS011;42623;49.978;9.966;2023-07-02T00:46:50;4.77;;;2.47;;
56746;SDS011;42623;49.978;9.966;2023-07-02T00:47:01;4.10;;;2.27;;
56746;SDS011;42623;49.978;9.966;2023-07-02T00:47:11;4.27;;;2.43;;
56746;SDS011;42623;49.978;9.966;2023-07-02T00:47:21;4.35;;;2.45;;
56746;SDS011;42623;49.978;9.966;2023-07-02T00:47:35;5.53;;;2.67;;
56746;SDS011;42623;49.978;9.966;2023-07-02T00:47:45;5.25;;;2.45;;
56746;SDS011;42623;49.978;9.966;2023-07-02T00:47:55;5.03;;;2.27;;
56746;SDS011;42623;49.978;9.966;2023-07-02T00:48:06;4.00;;;1.90;;
56746;SDS011;42623;49.978;9.966;2023-07-02T00:48:16;4.43;;;2.33;;
56746;SDS011;42623;49.978;9.966;2023-07-02T00:48:26;5.13;;;2.67;;
56746;SDS011;42623;49.978;9.966;2023-07-02T00:48:37;5.33;;;2.70;;
56746;SDS011;42623;49.978;9.966;2023-07-02T00:48:52;5.53;;;2.38;;
56746;SDS011;42623;49.978;9.966;2023-07-02T00:49:02;5.55;;;2.42;;
56746;SDS011;42623;49.978;9.966;2023-07-02T00:49:14;4.90;;;2.50;;
56746;SDS011;42623;49.978;9.966;2023-07-02T00:49:24;4.50;;;2.40;;
56746;SDS011;42623;49.978;9.966;2023-07-02T00:49:34;4.60;;;2.37;;
56746;SDS011;42623;49.978;9.966;2023-07-02T00:49:44;4.95;;;2.33;;
56746;SDS011;42623;49.978;9.966;2023-07-02T00:49:55;5.10;;;2.17;;
56746;SDS011;42623;49.978;9.966;2023-07-02T00:50:05;4.90;;;2.07;;
56746;SDS011;42623;49.978;9.966;2023-07-02T00:50:16;5.47;;;2.00;;
56746;SDS011;42623;49.978;9.966;2023-07-02T00:50:26;5.53;;;2.30;;
56746;SDS011;42623;49.978;9.966;2023-07-02T00:50:37;5.43;;;2.58;;
56746;SDS011;42623;49.978;9.966;2023-07-02T00:50:47;5.50;;;2.63;;
56746;SDS011;42623;49.978;9.966;2023-07-02T00:50:57;5.60;;;2.57;;
56746;SDS011;42623;49.978;9.966;2023-07-02T00:51:07;5.25;;;2.42;;
56746;SDS011;42623;49.978;9.966;2023-07-02T00:51:19;5.07;;;2.67;;
56746;SDS011;42623;49.978;9.966;2023-07-02T00:51:30;5.13;;;2.60;;
56746;SDS011;42623;49.978;9.966;2023-07-02T00:51:40;5.17;;;2.40;;
56746;SDS011;42623;49.978;9.966;2023-07-02T00:51:51;4.82;;;2.25;;
56746;SDS011;42623;49.978;9.966;2023-07-02T00:52:01;4.70;;;2.30;;
56746;SDS011;42623;49.978;9.966;2023-07-02T00:52:11;4.67;;;2.40;;
56746;SDS011;42623;49.978;9.966;2023-07-02T00:52:21;4.80;;;2.47;;
56746;SDS011;42623;49.978;9.966;2023-07-02T00:52:33;4.40;;;2.33;;
56746;SDS011;42623;49.978;9.966;2023-07-02T00:52:43;4.57;;;2.30;;
56746;SDS011;42623;49.978;9.966;2023-07-02T00:52:54;4.43;;;2.13;;
56746;SDS011;42623;49.978;9.966;2023-07-02T00:53:04;4.60;;;2.20;;
56746;SDS011;42623;49.978;9.966;2023-07-02T00:53:14;4.53;;;2.13;;
56746;SDS011;42623;49.978;9.966;2023-07-02T00:53:24;4.33;;;2.20;;
56746;SDS011;42623;49.978;9.966;2023-07-02T00:53:35;4.13;;;2.05;;
56746;SDS011;42623;49.978;9.966;2023-07-02T00:53:45;4.17;;;2.10;;
56746;SDS011;42623;49.978;9.966;2023-07-02T00:53:56;4.57;;;2.30;;
56746;SDS011;42623;49.978;9.966;2023-07-02T00:54:07;5.33;;;2.50;;
56746;SDS011;42623;49.978;9.966;2023-07-02T00:54:18;5.30;;;2.53;;
56746;SDS011;42623;49.978;9.966;2023-07-02T00:54:28;5.43;;;2.60;;
56746;SDS011;42623;49.978;9.966;2023-07-02T00:54:39;4.85;;;2.50;;
56746;SDS011;42623;49.978;9.966;2023-07-02T00:54:50;4.53;;;2.33;;
56746;SDS011;42623;49.978;9.966;2023-07-02T00:55:01;3.75;;;2.08;;
56746;SDS011;42623;49.978;9.966;2023-07-02T00:55:11;3.90;;;2.07;;
56746;SDS011;42623;49.978;9.966;2023-07-02T00:55:21;3.63;;;2.15;;
56746;SDS011;42623;49.978;9.966;2023-07-02T00:55:32;4.80;;;2.20;;
56746;SDS011;42623;49.978;9.966;2023-07-02T00:55:42;4.87;;;2.17;;
56746;SDS011;42623;49.978;9.966;2023-07-02T00:55:52;5.20;;;2.13;;
56746;SDS011;42623;49.978;9.966;2023-07-02T00:56:02;4.83;;;2.33;;
56746;SDS011;42623;49.978;9.966;2023-07-02T00:56:12;4.50;;;2.30;;
56746;SDS011;42623;49.978;9.966;2023-07-02T00:56:23;4.43;;;2.40;;
56746;SDS011;42623;49.978;9.966;2023-07-02T00:56:34;4.03;;;2.25;;
56746;SDS011;42623;49.978;9.966;2023-07-02T00:56:44;4.23;;;2.47;;
56746;SDS011;42623;49.978;9.966;2023-07-02T00:56:55;4.50;;;2.60;;
56746;SDS011;42623;49.978;9.966;2023-07-02T00:57:06;4.47;;;2.37;;
56746;SDS011;42623;49.978;9.966;2023-07-02T00:57:16;4.43;;;2.30;;
56746;SDS011;42623;49.978;9.966;2023-07-02T00:57:26;5.00;;;2.27;;
56746;SDS011;42623;49.978;9.966;2023-07-02T00:57:39;5.78;;;2.50;;
56746;SDS011;42623;49.978;9.966;2023-07-02T00:57:50;7.55;;;2.50;;
56746;SDS011;42623;49.978;9.966;2023-07-02T00:58:00;5.90;;;2.03;;
56746;SDS011;42623;49.978;9.966;2023-07-02T00:58:11;5.50;;;1.95;;
56746;SDS011;42623;49.978;9.966;2023-07-02T00:58:25;3.97;;;2.13;;
56746;SDS011;42623;49.978;9.966;2023-07-02T00:58:39;4.53;;;2.40;;
56746;SDS011;42623;49.978;9.966;2023-07-02T00:58:51;4.82;;;2.40;;
56746;SDS011;42623;49.978;9.966;2023-07-02T00:59:01;3.95;;;2.05;;
56746;SDS011;42623;49.978;9.966;2023-07-02T00:59:11;3.83;;;1.90;;
56746;SDS011;42623;49.978;9.966;2023-07-02T00:59:22;4.13;;;2.03;;
56746;SDS011;42623;49.978;9.966;2023-07-02T00:59:32;5.43;;;2.33;;
56746;SDS011;42623;49.978;9.966;2023-07-02T00:59:45;5.95;;;2.60;;
56746;SDS011;42623;49.978;9.966;2023-07-02T00:59:57;5.88;;;2.60;;
56746;SDS011;42623;49.978;9.966;2023-07-02T01:00:07;5.07;;;2.55;;
56746;SDS011;42623;49.978;9.966;2023-07-02T01:00:17;5.60;;;2.43;;
56746;SDS011;42623;49.978;9.966;2023-07-02T01:00:28;5.00;;;2.22;;
56746;SDS011;42623;49.978;9.966;2023-07-02T01:00:38;4.47;;;2.00;;
56746;SDS011;42623;49.978;9.966;2023-07-02T01:00:48;6.07;;;2.27;;
56746;SDS011;42623;49.978;9.966;2023-07-02T01:00:59;7.35;;;2.47;;
56746;SDS011;42623;49.978;9.966;2023-07-02T01:01:09;7.50;;;2.50;;
56746;SDS011;42623;49.978;9.966;2023-07-02T01:01:29;4.60;;;2.30;;
56746;SDS011;42623;49.978;9.966;2023-07-02T01:01:41;4.78;;;2.53;;
56746;SDS011;42623;49.978;9.966;2023-07-02T01:01:51;5.10;;;2.60;;
56746;SDS011;42623;49.978;9.966;2023-07-02T01:02:01;4.80;;;2.50;;
56746;SDS011;42623;49.978;9.966;2023-07-02T01:02:12;4.43;;;2.17;;
56746;SDS011;42623;49.978;9.966;2023-07-02T01:02:22;3.75;;;1.98;;
56746;SDS011;42623;49.978;9.966;2023-07-02T01:02:35;3.63;;;2.00;;
56746;SDS011;42623;49.978;9.966;2023-07-02T01:02:52;4.10;;;2.22;;
56746;SDS011;42623;49.978;9.966;2023-07-02T01:03:07;4.75;;;1.92;;
56746;SDS011;42623;49.978;9.966;2023-07-02T01:03:17;4.30;;;1.77;;
56746;SDS011;42623;49.978;9.966;2023-07-02T01:03:27;3.57;;;1.80;;
56746;SDS011;42623;49.978;9.966;2023-07-02T01:03:38;4.05;;;2.00;;
56746;SDS011;42623;49.978;9.966;2023-07-02T01:03:50;4.65;;;2.22;;
56746;SDS011;42623;49.978;9.966;2023-07-02T01:04:04;5.32;;;2.60;;
56746;SDS011;42623;49.978;9.966;2023-07-02T01:04:16;4.57;;;2.30;;
56746;SDS011;42623;49.978;9.966;2023-07-02T01:04:27;4.18;;;2.28;;
56746;SDS011;42623;49.978;9.966;2023-07-02T01:04:37;4.35;;;2.40;;
56746;SDS011;42623;49.978;9.966;2023-07-02T01:04:47;4.40;;;2.40;;
56746;SDS011;42623;49.978;9.966;2023-07-02T01:04:59;4.75;;;2.40;;
56746;SDS011;42623;49.978;9.966;2023-07-02T01:05:13;4.77;;;2.33;;
56746;SDS011;42623;49.978;9.966;2023-07-02T01:05:25;5.03;;;2.33;;
56746;SDS011;42623;49.978;9.966;2023-07-02T01:05:35;5.00;;;2.28;;
56746;SDS011;42623;49.978;9.966;2023-07-02T01:05:46;4.70;;;2.20;;
56746;SDS011;42623;49.978;9.966;2023-07-02T01:05:56;4.28;;;2.15;;
56746;SDS011;42623;49.978;9.966;2023-07-02T01:06:06;4.30;;;2.20;;
56746;SDS011;42623;49.978;9.966;2023-07-02T01:06:17;4.57;;;2.22;;
56746;SDS011;42623;49.978;9.966;2023-07-02T01:06:30;4.85;;;2.30;;
56746;SDS011;42623;49.978;9.966;2023-07-02T01:06:40;4.38;;;2.10;;
56746;SDS011;42623;49.978;9.966;2023-07-02T01:06:51;3.80;;;1.90;;
56746;SDS011;42623;49.978;9.966;2023-07-02T01:07:01;3.83;;;1.90;;